Terminal Aerodrome Forecast
Issued by NWS Sioux Falls, SD

Home | Current Version | Previous Version | Text Only | Print | Product List | Glossary On
Versions: 1 2 3 4 5 6 7 8 9 10 11 12 13 14 15 16
000
FTUS43 KFSD 302320
TAFSUX
TAF
KSUX 302320Z 3100/3124 17012KT P6SM SCT080
     FM310300 15009KT P6SM BKN140
     FM310500 18008KT P6SM SHRA VCTS BKN090CB
      TEMPO 3105/3107 VRB25G35KT 6SM TSRA BKN050CB
     FM310800 21008KT P6SM OVC060
     FM311100 30008KT P6SM BKN100=

USA.gov is the U.S. government's official web portal to all federal, state and local government web resources and services.